createdAt,value
2018-11-26T00:00:36.536Z,4.90
2018-11-26T00:03:12.751Z,4.80
2018-11-26T00:05:41.380Z,4.90
2018-11-26T00:08:11.934Z,4.80
2018-11-26T00:10:51.547Z,4.80
2018-11-26T00:13:20.435Z,4.90
2018-11-26T00:15:49.305Z,4.90
2018-11-26T00:18:18.000Z,4.90
2018-11-26T00:20:46.415Z,4.90
2018-11-26T00:23:14.821Z,5.00
2018-11-26T00:25:43.235Z,4.90
2018-11-26T00:28:11.632Z,5.00
2018-11-26T00:30:40.376Z,5.00
2018-11-26T00:33:09.271Z,4.90
2018-11-26T00:35:37.679Z,5.00
2018-11-26T00:38:06.765Z,5.00
2018-11-26T00:40:35.644Z,4.90
2018-11-26T00:43:04.035Z,4.90
2018-11-26T00:45:33.322Z,4.90
2018-11-26T00:48:01.735Z,4.90
2018-11-26T00:50:30.131Z,5.00
2018-11-26T00:52:58.775Z,5.00
2018-11-26T00:55:27.459Z,5.00
2018-11-26T00:57:56.348Z,5.10
2018-11-26T01:00:25.036Z,5.10
2018-11-26T01:02:53.731Z,5.00
2018-11-26T01:05:34.557Z,4.90
2018-11-26T01:08:02.996Z,4.90
2018-11-26T01:10:31.387Z,4.90
2018-11-26T01:13:00.059Z,4.80
2018-11-26T01:15:28.751Z,4.80
2018-11-26T01:17:57.132Z,4.70
2018-11-26T01:20:25.534Z,4.70
2018-11-26T01:22:53.975Z,4.70
2018-11-26T01:25:23.179Z,4.70
2018-11-26T01:27:51.535Z,4.70
2018-11-26T01:30:20.372Z,4.70
2018-11-26T01:32:48.771Z,4.70
2018-11-26T01:35:17.387Z,4.60
2018-11-26T01:37:45.999Z,4.60
2018-11-26T01:40:34.623Z,4.60
2018-11-26T01:43:03.004Z,4.60
2018-11-26T01:45:31.703Z,4.60
2018-11-26T01:48:00.083Z,4.50
2018-11-26T01:50:30.659Z,4.50
2018-11-26T01:53:00.742Z,4.50
2018-11-26T01:55:29.455Z,4.50
2018-11-26T01:57:57.819Z,4.50
2018-11-26T02:00:27.587Z,4.50
2018-11-26T02:02:56.519Z,4.50
2018-11-26T02:05:24.928Z,4.50
2018-11-26T02:07:53.364Z,4.50
2018-11-26T02:10:21.820Z,4.50
2018-11-26T02:12:50.459Z,4.50
2018-11-26T02:15:49.598Z,4.60
2018-11-26T02:18:18.008Z,4.60
2018-11-26T02:20:46.667Z,4.60
2018-11-26T02:23:15.389Z,4.60
2018-11-26T02:25:44.283Z,4.60
2018-11-26T02:28:13.203Z,4.60
2018-11-26T02:30:41.755Z,4.60
2018-11-26T02:33:10.411Z,4.70
2018-11-26T02:35:39.120Z,4.70
2018-11-26T02:38:07.540Z,4.70
2018-11-26T02:40:36.483Z,4.60
2018-11-26T02:43:06.308Z,4.60
2018-11-26T02:45:35.265Z,4.60
2018-11-26T02:48:03.959Z,4.60
2018-11-26T02:50:32.634Z,4.60
2018-11-26T02:53:01.368Z,4.70
2018-11-26T02:55:29.759Z,4.70
2018-11-26T02:57:58.384Z,4.80
2018-11-26T03:00:26.824Z,4.80
2018-11-26T03:02:55.235Z,4.80
2018-11-26T03:05:28.789Z,4.80
2018-11-26T03:07:57.567Z,4.80
2018-11-26T03:10:25.956Z,4.80
2018-11-26T03:12:54.367Z,4.80
2018-11-26T03:15:22.770Z,4.80
2018-11-26T03:17:52.054Z,4.80
2018-11-26T03:20:20.467Z,4.80
2018-11-26T03:22:48.996Z,4.80
2018-11-26T03:25:17.759Z,4.80
2018-11-26T03:27:46.531Z,4.80
2018-11-26T03:30:22.497Z,4.80
2018-11-26T03:32:51.050Z,4.80
2018-11-26T03:35:19.492Z,4.90
2018-11-26T03:37:48.235Z,4.90
2018-11-26T03:40:18.522Z,4.90
2018-11-26T03:42:48.412Z,4.80
2018-11-26T03:45:17.891Z,4.80
2018-11-26T03:47:46.287Z,4.80
2018-11-26T03:50:15.264Z,4.90
2018-11-26T03:52:44.900Z,4.90
2018-11-26T03:55:13.978Z,4.80
2018-11-26T03:57:42.884Z,4.80
2018-11-26T04:00:16.756Z,4.80
2018-11-26T04:02:45.182Z,4.80
2018-11-26T04:05:13.594Z,4.90
2018-11-26T04:07:42.179Z,4.90
2018-11-26T04:10:11.890Z,4.90
2018-11-26T04:12:40.709Z,4.90
2018-11-26T04:15:10.993Z,4.90
2018-11-26T04:17:39.700Z,4.90
2018-11-26T04:20:09.230Z,4.90
2018-11-26T04:22:37.766Z,4.90
2018-11-26T04:25:07.613Z,4.90
2018-11-26T04:27:36.156Z,4.90
2018-11-26T04:30:08.521Z,4.90
2018-11-26T04:32:37.860Z,5.00
2018-11-26T04:35:06.732Z,5.00
2018-11-26T04:37:35.173Z,5.00
2018-11-26T04:40:03.876Z,5.00
2018-11-26T04:42:32.575Z,4.90
2018-11-26T04:45:01.199Z,4.90
2018-11-26T04:47:30.515Z,4.90
2018-11-26T04:49:58.880Z,5.00
2018-11-26T04:52:27.599Z,5.00
2018-11-26T04:54:56.011Z,5.00
2018-11-26T04:57:24.443Z,5.00
2018-11-26T04:59:53.262Z,4.90
2018-11-26T05:02:21.679Z,5.00
2018-11-26T05:04:50.450Z,4.90
2018-11-26T05:07:19.320Z,4.90
2018-11-26T05:09:47.812Z,5.00
2018-11-26T05:12:17.203Z,5.00
2018-11-26T05:14:46.116Z,5.10
2018-11-26T05:17:14.473Z,5.00
2018-11-26T05:19:42.827Z,5.00
2018-11-26T05:22:11.204Z,4.90
2018-11-26T05:24:39.823Z,4.80
2018-11-26T05:27:08.523Z,4.80
2018-11-26T05:29:36.887Z,4.90
2018-11-26T05:32:06.643Z,4.90
2018-11-26T05:34:35.065Z,4.90
2018-11-26T05:37:03.496Z,4.80
2018-11-26T05:39:31.883Z,4.80
2018-11-26T05:42:00.284Z,4.80
2018-11-26T05:44:28.907Z,4.80
2018-11-26T05:46:57.335Z,4.90
2018-11-26T05:49:25.692Z,4.80
2018-11-26T05:51:54.267Z,4.80
2018-11-26T05:54:22.631Z,4.80
2018-11-26T05:56:51.323Z,4.80
2018-11-26T05:59:20.016Z,4.70
2018-11-26T06:01:48.368Z,4.70
2018-11-26T06:04:17.208Z,4.70
2018-11-26T06:06:46.004Z,4.80
2018-11-26T06:09:14.680Z,4.70
2018-11-26T06:11:43.380Z,4.70
2018-11-26T06:14:12.026Z,4.70
2018-11-26T06:16:41.282Z,4.70
2018-11-26T06:19:09.975Z,4.60
2018-11-26T06:21:38.669Z,4.60
2018-11-26T06:24:07.381Z,4.70
2018-11-26T06:26:35.775Z,4.70
2018-11-26T06:29:04.436Z,4.70
2018-11-26T06:31:33.387Z,4.70
2018-11-26T06:34:01.775Z,4.70
2018-11-26T06:36:30.469Z,4.70
2018-11-26T06:38:58.856Z,4.70
2018-11-26T06:41:27.223Z,4.70
2018-11-26T06:43:56.400Z,4.70
2018-11-26T06:46:25.024Z,4.70
2018-11-26T06:48:53.388Z,4.70
2018-11-26T06:51:22.029Z,4.70
2018-11-26T06:53:50.397Z,4.70
2018-11-26T06:56:18.788Z,4.70
2018-11-26T06:58:47.527Z,4.70
2018-11-26T07:01:16.920Z,4.70
2018-11-26T07:03:46.098Z,4.70
2018-11-26T07:06:15.317Z,4.70
2018-11-26T07:08:44.172Z,4.70
2018-11-26T07:11:12.833Z,4.70
2018-11-26T07:13:41.687Z,4.70
2018-11-26T07:16:10.080Z,4.70
2018-11-26T07:18:38.826Z,4.70
2018-11-26T07:21:07.904Z,4.80
2018-11-26T07:23:36.369Z,4.80
2018-11-26T07:26:05.079Z,4.80
2018-11-26T07:28:33.439Z,4.80
2018-11-26T07:31:02.133Z,4.80
2018-11-26T07:33:31.771Z,4.80
2018-11-26T07:36:00.235Z,4.80
2018-11-26T07:38:28.871Z,4.80
2018-11-26T07:40:57.275Z,4.80
2018-11-26T07:43:25.680Z,4.80
2018-11-26T07:45:54.585Z,4.90
2018-11-26T07:48:23.291Z,4.90
2018-11-26T07:50:51.715Z,4.90
2018-11-26T07:53:20.782Z,4.90
2018-11-26T07:55:49.842Z,4.80
2018-11-26T07:58:18.832Z,4.90
2018-11-26T08:00:47.455Z,4.90
2018-11-26T08:03:16.160Z,4.90
2018-11-26T08:05:44.571Z,5.00
2018-11-26T08:08:12.947Z,5.00
2018-11-26T08:10:41.643Z,5.10
2018-11-26T08:13:10.679Z,5.10
2018-11-26T08:15:39.912Z,5.20
2018-11-26T08:18:08.632Z,5.10
2018-11-26T08:20:37.874Z,5.00
2018-11-26T08:23:06.616Z,5.00
2018-11-26T08:25:35.771Z,5.00
2018-11-26T08:28:04.126Z,5.00
2018-11-26T08:30:32.535Z,5.00
2018-11-26T08:33:02.245Z,4.90
2018-11-26T08:35:31.490Z,4.90
2018-11-26T08:38:05.180Z,5.00
2018-11-26T08:40:38.831Z,5.00
2018-11-26T08:43:07.342Z,5.00
2018-11-26T08:45:36.968Z,5.00
2018-11-26T08:48:10.180Z,5.00
2018-11-26T08:50:38.812Z,4.90
2018-11-26T08:53:07.552Z,4.90
2018-11-26T08:55:36.417Z,4.90
2018-11-26T08:58:05.202Z,5.00
2018-11-26T09:00:33.584Z,5.00
2018-11-26T09:03:02.857Z,5.00
2018-11-26T09:05:40.888Z,5.10
2018-11-26T09:08:09.608Z,5.10
2018-11-26T09:10:38.843Z,5.20
2018-11-26T09:13:07.500Z,5.20
2018-11-26T09:15:35.932Z,5.20
2018-11-26T09:18:04.431Z,5.30
2018-11-26T09:20:32.816Z,5.30
2018-11-26T09:23:01.161Z,5.40
2018-11-26T09:25:29.889Z,5.30
2018-11-26T09:27:58.271Z,5.30
2018-11-26T09:30:26.657Z,5.30
2018-11-26T09:32:55.372Z,5.30
2018-11-26T09:35:23.752Z,5.40
2018-11-26T09:37:53.001Z,5.50
2018-11-26T09:40:21.743Z,5.30
2018-11-26T09:42:50.367Z,5.30
2018-11-26T09:45:18.994Z,5.30
2018-11-26T09:47:47.388Z,5.20
2018-11-26T09:50:17.088Z,5.20
2018-11-26T09:52:45.844Z,5.20
2018-11-26T09:55:15.297Z,5.10
2018-11-26T09:57:43.699Z,5.10
2018-11-26T10:00:14.223Z,5.20
2018-11-26T10:02:43.817Z,5.20
2018-11-26T10:05:15.639Z,5.20
2018-11-26T10:07:44.313Z,5.20
2018-11-26T10:10:14.010Z,5.20
2018-11-26T10:12:43.412Z,5.30
2018-11-26T10:15:14.243Z,5.30
2018-11-26T10:17:42.650Z,5.40
2018-11-26T10:20:12.035Z,5.40
2018-11-26T10:22:40.895Z,5.40
2018-11-26T10:25:13.921Z,5.40
2018-11-26T10:27:42.975Z,5.30
2018-11-26T10:30:13.535Z,5.30
2018-11-26T10:32:42.164Z,5.30
2018-11-26T10:35:13.429Z,5.20
2018-11-26T10:37:41.862Z,5.20
2018-11-26T10:40:13.379Z,5.20
2018-11-26T10:42:42.063Z,5.30
2018-11-26T10:45:12.366Z,5.20
2018-11-26T10:47:40.747Z,5.20
2018-11-26T10:50:13.091Z,5.20
2018-11-26T10:52:44.167Z,5.20
2018-11-26T10:55:14.148Z,5.20
2018-11-26T10:57:43.072Z,5.20
2018-11-26T11:00:18.558Z,5.20
2018-11-26T11:02:47.172Z,5.20
2018-11-26T11:05:15.886Z,5.20
2018-11-26T11:07:44.293Z,5.20
2018-11-26T11:10:15.583Z,5.20
2018-11-26T11:12:43.984Z,5.10
2018-11-26T11:15:12.992Z,5.10
2018-11-26T11:17:41.981Z,5.10
2018-11-26T11:20:13.636Z,5.10
2018-11-26T11:22:42.039Z,5.10
2018-11-26T11:25:12.226Z,5.10
2018-11-26T11:27:40.925Z,5.10
2018-11-26T11:30:19.160Z,5.20
2018-11-26T11:32:47.606Z,5.20
2018-11-26T11:35:17.583Z,5.20
2018-11-26T11:37:47.104Z,5.20
2018-11-26T11:40:18.873Z,5.20
2018-11-26T11:42:47.445Z,5.20
2018-11-26T11:45:15.949Z,5.40
2018-11-26T11:47:44.673Z,5.40
2018-11-26T11:50:14.253Z,5.30
2018-11-26T11:52:42.948Z,5.20
2018-11-26T11:55:12.904Z,5.10
2018-11-26T11:57:41.305Z,5.10
2018-11-26T12:00:17.674Z,5.10
2018-11-26T12:02:46.101Z,5.30
2018-11-26T12:05:16.062Z,5.30
2018-11-26T12:07:44.449Z,5.20
2018-11-26T12:10:13.101Z,5.30
2018-11-26T12:12:41.505Z,5.20
2018-11-26T12:15:12.317Z,5.10
2018-11-26T12:17:41.277Z,5.10
2018-11-26T12:20:11.033Z,5.20
2018-11-26T12:22:40.139Z,5.20
2018-11-26T12:25:10.199Z,5.20
2018-11-26T12:27:38.869Z,5.20
2018-11-26T12:30:12.448Z,5.20
2018-11-26T12:32:40.880Z,5.10
2018-11-26T12:35:09.541Z,5.10
2018-11-26T12:37:37.912Z,5.10
2018-11-26T12:40:08.755Z,5.10
2018-11-26T12:42:37.157Z,5.10
2018-11-26T12:45:10.927Z,5.10
2018-11-26T12:47:39.505Z,5.00
2018-11-26T12:50:09.113Z,5.00
2018-11-26T12:52:38.077Z,5.10
2018-11-26T12:55:09.644Z,5.00
2018-11-26T12:57:38.753Z,5.00
2018-11-26T13:00:13.906Z,4.90
2018-11-26T13:02:42.759Z,4.90
2018-11-26T13:05:15.048Z,4.80
2018-11-26T13:07:43.473Z,4.80
2018-11-26T13:10:20.149Z,4.80
2018-11-26T13:12:49.976Z,4.80
2018-11-26T13:15:26.375Z,4.80
2018-11-26T13:17:55.392Z,4.80
2018-11-26T13:20:27.038Z,4.80
2018-11-26T13:22:55.649Z,4.80
2018-11-26T13:25:26.147Z,4.70
2018-11-26T13:27:55.664Z,4.70
2018-11-26T13:30:40.606Z,4.70
2018-11-26T13:33:10.825Z,4.70
2018-11-26T13:35:39.513Z,4.70
2018-11-26T13:38:08.741Z,4.60
2018-11-26T13:40:37.832Z,4.70
2018-11-26T13:43:08.201Z,4.70
2018-11-26T13:45:38.457Z,4.70
2018-11-26T13:48:08.578Z,4.70
2018-11-26T13:50:38.793Z,4.70
2018-11-26T13:53:07.203Z,4.70
2018-11-26T13:55:35.717Z,4.70
2018-11-26T13:58:04.124Z,4.70
2018-11-26T14:00:33.473Z,4.70
2018-11-26T14:03:01.903Z,4.80
2018-11-26T14:05:30.285Z,4.80
2018-11-26T14:07:58.962Z,4.80
2018-11-26T14:10:28.421Z,4.80
2018-11-26T14:13:01.409Z,4.80
2018-11-26T14:15:29.845Z,4.70
2018-11-26T14:17:58.261Z,4.70
2018-11-26T14:20:26.696Z,4.70
2018-11-26T14:22:55.316Z,4.60
2018-11-26T14:25:23.797Z,4.50
2018-11-26T14:27:52.501Z,4.50
2018-11-26T14:30:23.190Z,4.50
2018-11-26T14:32:51.632Z,4.50
2018-11-26T14:35:20.169Z,4.60
2018-11-26T14:37:51.736Z,4.60
2018-11-26T14:40:22.577Z,4.50
2018-11-26T14:42:51.301Z,4.50
2018-11-26T14:45:19.693Z,4.50
2018-11-26T14:47:48.087Z,4.40
2018-11-26T14:50:17.049Z,4.40
2018-11-26T14:52:47.417Z,4.30
2018-11-26T14:55:18.299Z,4.30
2018-11-26T14:57:46.696Z,4.40
2018-11-26T15:00:16.995Z,4.40
2018-11-26T15:02:45.977Z,4.40
2018-11-26T15:05:14.926Z,4.30
2018-11-26T15:07:43.589Z,4.30
2018-11-26T15:10:14.276Z,4.30
2018-11-26T15:12:42.975Z,4.30
2018-11-26T15:15:19.238Z,4.20
2018-11-26T15:17:47.679Z,4.20
2018-11-26T15:20:19.141Z,4.20
2018-11-26T15:22:48.026Z,4.20
2018-11-26T15:25:32.428Z,4.20
2018-11-26T15:28:06.825Z,4.20
2018-11-26T15:30:35.535Z,4.10
2018-11-26T15:33:03.966Z,4.10
2018-11-26T15:35:32.448Z,4.20
2018-11-26T15:38:01.068Z,4.20
2018-11-26T15:40:29.830Z,4.20
2018-11-26T15:42:58.438Z,4.20
2018-11-26T15:45:28.049Z,4.20
2018-11-26T15:47:58.725Z,4.20
2018-11-26T15:50:27.191Z,4.20
2018-11-26T15:52:55.626Z,4.20
2018-11-26T15:55:24.010Z,4.20
2018-11-26T15:57:52.403Z,4.20
2018-11-26T16:00:23.721Z,4.20
2018-11-26T16:02:52.941Z,4.20
2018-11-26T16:05:22.831Z,4.10
2018-11-26T16:07:52.333Z,4.10
2018-11-26T16:10:21.017Z,4.20
2018-11-26T16:12:52.878Z,4.10
2018-11-26T16:15:25.516Z,4.00
2018-11-26T16:17:55.328Z,4.00
2018-11-26T16:20:25.605Z,4.00
2018-11-26T16:22:54.676Z,4.00
2018-11-26T16:25:24.332Z,4.00
2018-11-26T16:27:53.002Z,4.00
2018-11-26T16:30:21.429Z,4.00
2018-11-26T16:32:56.074Z,4.00
2018-11-26T16:35:27.022Z,4.00
2018-11-26T16:37:55.785Z,4.00
2018-11-26T16:40:24.233Z,4.00
2018-11-26T16:42:52.666Z,3.90
2018-11-26T16:45:23.465Z,3.90
2018-11-26T16:47:53.206Z,3.80
2018-11-26T16:50:23.012Z,3.80
2018-11-26T16:52:51.769Z,3.80
2018-11-26T16:55:20.082Z,3.80
2018-11-26T16:57:48.801Z,3.80
2018-11-26T17:00:21.266Z,3.80
2018-11-26T17:02:52.185Z,3.90
2018-11-26T17:05:23.430Z,4.00
2018-11-26T17:07:51.797Z,4.00
2018-11-26T17:10:20.719Z,4.00
2018-11-26T17:12:49.144Z,4.10
2018-11-26T17:15:18.413Z,4.10
2018-11-26T17:17:47.029Z,4.20
2018-11-26T17:20:16.390Z,4.10
2018-11-26T17:22:44.989Z,4.20
2018-11-26T17:25:14.754Z,4.20
2018-11-26T17:27:47.185Z,4.20
2018-11-26T17:30:22.637Z,4.20
2018-11-26T17:32:56.497Z,4.20
2018-11-26T17:35:25.721Z,4.20
2018-11-26T17:37:54.388Z,4.20
2018-11-26T17:40:24.009Z,4.20
2018-11-26T17:42:53.137Z,4.20
2018-11-26T17:45:22.460Z,4.10
2018-11-26T17:47:52.225Z,4.10
2018-11-26T17:50:28.505Z,4.20
2018-11-26T17:52:57.022Z,4.20
2018-11-26T17:55:26.068Z,4.20
2018-11-26T17:57:54.441Z,4.20
2018-11-26T18:00:24.336Z,4.20
2018-11-26T18:02:52.760Z,4.10
2018-11-26T18:05:22.582Z,4.10
2018-11-26T18:07:53.534Z,4.10
2018-11-26T18:10:22.236Z,4.10
2018-11-26T18:12:50.984Z,4.10
2018-11-26T18:15:19.406Z,4.20
2018-11-26T18:17:48.116Z,4.10
2018-11-26T18:20:17.929Z,4.10
2018-11-26T18:22:47.712Z,4.10
2018-11-26T18:25:16.685Z,4.10
2018-11-26T18:27:47.561Z,4.10
2018-11-26T18:30:17.462Z,4.10
2018-11-26T18:32:45.930Z,4.20
2018-11-26T18:35:14.703Z,4.20
2018-11-26T18:37:43.117Z,4.20
2018-11-26T18:40:14.250Z,4.10
2018-11-26T18:42:42.669Z,4.10
2018-11-26T18:45:13.673Z,4.10
2018-11-26T18:47:42.403Z,4.10
2018-11-26T18:50:13.398Z,4.10
2018-11-26T18:52:41.917Z,4.10
2018-11-26T18:55:11.077Z,4.10
2018-11-26T18:57:39.624Z,4.20
2018-11-26T19:00:14.140Z,4.20
2018-11-26T19:02:42.527Z,4.20
2018-11-26T19:05:12.408Z,4.20
2018-11-26T19:07:40.808Z,4.20
2018-11-26T19:10:14.569Z,4.20
2018-11-26T19:12:44.048Z,4.20
2018-11-26T19:15:19.616Z,4.20
2018-11-26T19:17:48.908Z,4.20
2018-11-26T19:20:17.584Z,4.20
2018-11-26T19:22:45.978Z,4.20
2018-11-26T19:25:18.449Z,4.20
2018-11-26T19:27:47.138Z,4.20
2018-11-26T19:30:16.210Z,4.20
2018-11-26T19:32:45.924Z,4.20
2018-11-26T19:35:15.341Z,4.20
2018-11-26T19:37:43.858Z,4.10
2018-11-26T19:40:13.770Z,4.20
2018-11-26T19:42:45.280Z,4.20
2018-11-26T19:45:21.800Z,4.20
2018-11-26T19:47:50.604Z,4.20
2018-11-26T19:50:19.840Z,4.10
2018-11-26T19:52:50.296Z,4.20
2018-11-26T19:55:20.093Z,4.10
2018-11-26T19:57:48.934Z,4.20
2018-11-26T20:00:23.775Z,4.10
2018-11-26T20:02:57.329Z,4.10
2018-11-26T20:06:30.997Z,4.10
2018-11-26T20:09:00.578Z,4.10
2018-11-26T20:11:33.161Z,4.10
2018-11-26T20:13:57.415Z,4.10
2018-11-26T20:16:31.774Z,4.20
2018-11-26T20:19:00.165Z,4.10
2018-11-26T20:21:28.913Z,4.10
2018-11-26T20:23:57.791Z,4.20
2018-11-26T20:26:26.511Z,4.20
2018-11-26T20:28:57.066Z,4.20
2018-11-26T20:31:23.538Z,4.20
2018-11-26T20:33:52.875Z,4.20
2018-11-26T20:36:22.136Z,4.20
2018-11-26T20:38:50.525Z,4.20
2018-11-26T20:41:19.509Z,4.30
2018-11-26T20:43:48.565Z,4.30
2018-11-26T20:46:17.299Z,4.30
2018-11-26T20:48:46.029Z,4.20
2018-11-26T20:51:14.456Z,4.30
2018-11-26T20:53:43.430Z,4.30
2018-11-26T20:56:14.778Z,4.30
2018-11-26T20:58:43.875Z,4.30
2018-11-26T21:01:12.269Z,4.30
2018-11-26T21:03:41.002Z,4.30
2018-11-26T21:06:09.489Z,4.30
2018-11-26T21:08:37.900Z,4.30
2018-11-26T21:11:06.376Z,4.30
2018-11-26T21:13:34.941Z,4.30
2018-11-26T21:16:03.484Z,4.30
2018-11-26T21:18:32.429Z,4.30
2018-11-26T21:21:00.878Z,4.20
2018-11-26T21:23:31.672Z,4.20
2018-11-26T21:26:01.882Z,4.20
2018-11-26T21:28:30.335Z,4.20
2018-11-26T21:30:59.696Z,4.30
2018-11-26T21:33:28.125Z,4.30
2018-11-26T21:35:56.823Z,4.20
2018-11-26T21:38:25.468Z,4.30
2018-11-26T21:40:54.186Z,4.20
2018-11-26T21:43:23.053Z,4.20
2018-11-26T21:45:56.437Z,4.20
2018-11-26T21:48:27.849Z,4.30
2018-11-26T21:50:56.349Z,4.30
2018-11-26T21:53:25.069Z,4.30
2018-11-26T21:55:53.721Z,4.30
2018-11-26T21:58:22.894Z,4.30
2018-11-26T22:00:52.889Z,4.20
2018-11-26T22:03:21.871Z,4.20
2018-11-26T22:05:50.617Z,4.20
2018-11-26T22:08:19.697Z,4.20
2018-11-26T22:10:48.153Z,4.20
2018-11-26T22:13:18.386Z,4.30
2018-11-26T22:15:46.857Z,4.30
2018-11-26T22:18:15.305Z,4.30
2018-11-26T22:20:43.736Z,4.30
2018-11-26T22:23:12.268Z,4.20
2018-11-26T22:25:41.354Z,4.20
2018-11-26T22:28:10.912Z,4.30
2018-11-26T22:30:40.332Z,4.30
2018-11-26T22:33:09.193Z,4.30
2018-11-26T22:35:37.645Z,4.30
2018-11-26T22:38:13.115Z,4.30
2018-11-26T22:40:41.533Z,4.30
2018-11-26T22:43:10.346Z,4.30
2018-11-26T22:45:38.777Z,4.30
2018-11-26T22:48:09.736Z,4.30
2018-11-26T22:50:39.673Z,4.30
2018-11-26T22:53:09.041Z,4.30
2018-11-26T22:55:37.502Z,4.30
2018-11-26T22:58:07.898Z,4.30
2018-11-26T23:00:42.244Z,4.30
2018-11-26T23:03:11.970Z,4.30
2018-11-26T23:05:40.717Z,4.30
2018-11-26T23:08:09.288Z,4.30
2018-11-26T23:10:38.021Z,4.40
2018-11-26T23:13:07.757Z,4.30
2018-11-26T23:15:36.195Z,4.30
2018-11-26T23:18:04.949Z,4.30
2018-11-26T23:20:34.557Z,4.30
2018-11-26T23:23:03.193Z,4.30
2018-11-26T23:25:31.690Z,4.30
2018-11-26T23:28:00.070Z,4.30
2018-11-26T23:30:29.398Z,4.20
2018-11-26T23:32:59.041Z,4.20
2018-11-26T23:35:27.516Z,4.20
2018-11-26T23:37:56.502Z,4.20
2018-11-26T23:40:25.686Z,4.20
2018-11-26T23:42:54.446Z,4.20
2018-11-26T23:45:24.538Z,4.20
2018-11-26T23:47:52.964Z,4.20
2018-11-26T23:50:21.776Z,4.20
2018-11-26T23:52:50.194Z,4.20
2018-11-26T23:55:22.033Z,4.20
2018-11-26T23:57:50.745Z,4.30
